Time;durP1;ratioP1;P1;durP2;ratioP2;P2;SDS_P1;SDS_P2;PMS_P1;PMS_P2;Temp;Humidity;BMP_temperature;BMP_pressure;BME280_temperature;BME280_humidity;BME280_pressure;Samples;Min_cycle;Max_cycle;Signal;HPM_P1;HPM_P2
2024/01/17 00:01:41;;;;;;;;;28.33;23.67;;;;;;;;5043203;28;45388;-81
2024/01/17 00:04:06;;;;;;;;;34.67;31.00;;;;;;;;5046825;28;45224;-81
2024/01/17 00:06:31;;;;;;;;;33.67;27.33;;;;;;;;5043549;28;45437;-82
2024/01/17 00:08:56;;;;;;;;;29.75;24.25;;;;;;;;5041993;28;45390;-81
2024/01/17 00:11:22;;;;;;;;;34.67;30.67;;;;;;;;5038454;28;45502;-82
2024/01/17 00:13:47;;;;;;;;;30.33;26.00;;;;;;;;5044466;28;45381;-82
2024/01/17 00:16:19;;;;;;;;;28.33;27.00;;;;;;;;5042291;28;45449;-81
2024/01/17 00:18:44;;;;;;;;;31.75;27.25;;;;;;;;5022535;28;45380;-81
2024/01/17 00:21:10;;;;;;;;;34.00;27.33;;;;;;;;5042489;28;46337;-82
2024/01/17 00:23:35;;;;;;;;;23.00;21.33;;;;;;;;5042188;28;45272;-82
2024/01/17 00:26:00;;;;;;;;;34.67;31.33;;;;;;;;5042465;28;45388;-81
2024/01/17 00:28:25;;;;;;;;;34.33;28.33;;;;;;;;5044046;28;45341;-82
2024/01/17 00:30:50;;;;;;;;;33.33;31.33;;;;;;;;5042537;28;45458;-81
2024/01/17 00:33:15;;;;;;;;;33.33;23.67;;;;;;;;5042559;28;45365;-81
2024/01/17 00:35:41;;;;;;;;;35.00;31.25;;;;;;;;5042893;28;45283;-82
2024/01/17 00:38:06;;;;;;;;;34.33;28.33;;;;;;;;5043682;28;45805;-82
2024/01/17 00:40:32;;;;;;;;;30.67;27.67;;;;;;;;5041694;28;45185;-82
2024/01/17 00:42:57;;;;;;;;;33.00;28.33;;;;;;;;5046258;28;45277;-82
2024/01/17 00:45:22;;;;;;;;;27.67;26.33;;;;;;;;5042671;28;45480;-82
2024/01/17 00:47:47;;;;;;;;;30.33;25.33;;;;;;;;5043964;28;45468;-82
2024/01/17 00:50:14;;;;;;;;;42.33;37.67;;;;;;;;5035453;28;45471;-82
2024/01/17 00:52:39;;;;;;;;;34.50;32.50;;;;;;;;5034130;28;45712;-82
2024/01/17 00:55:04;;;;;;;;;30.67;28.00;;;;;;;;5040276;28;45374;-81
2024/01/17 00:57:30;;;;;;;;;22.75;22.50;;;;;;;;5030242;28;45314;-81
2024/01/17 00:59:55;;;;;;;;;29.33;28.00;;;;;;;;5046489;28;45442;-81
2024/01/17 01:02:20;;;;;;;;;28.33;26.00;;;;;;;;5030691;28;45231;-81
2024/01/17 01:04:45;;;;;;;;;31.33;23.67;;;;;;;;5028927;28;45300;-81
2024/01/17 01:07:10;;;;;;;;;31.00;27.00;;;;;;;;5048031;28;45421;-81
2024/01/17 01:09:36;;;;;;;;;43.00;34.33;;;;;;;;5045320;28;45302;-81
2024/01/17 01:12:01;;;;;;;;;52.67;42.00;;;;;;;;5041104;28;45216;-81
2024/01/17 01:14:26;;;;;;;;;43.00;35.33;;;;;;;;5027967;28;46480;-81
2024/01/17 01:16:51;;;;;;;;;35.33;32.33;;;;;;;;5043453;28;45335;-81
2024/01/17 01:19:16;;;;;;;;;34.00;30.33;;;;;;;;5028730;28;47314;-81
2024/01/17 01:21:42;;;;;;;;;31.33;25.33;;;;;;;;5029734;28;45434;-81
2024/01/17 01:24:08;;;;;;;;;32.50;28.50;;;;;;;;5042491;28;45338;-81
2024/01/17 01:26:35;;;;;;;;;34.00;28.00;;;;;;;;5047162;28;45311;-82
2024/01/17 01:29:00;;;;;;;;;36.00;29.25;;;;;;;;5025808;28;47223;-82
2024/01/17 01:31:25;;;;;;;;;32.67;25.67;;;;;;;;5045125;28;45535;-82
2024/01/17 01:33:50;;;;;;;;;43.67;38.00;;;;;;;;5045551;28;45478;-82
2024/01/17 01:36:15;;;;;;;;;36.33;33.67;;;;;;;;5048408;28;45371;-81
2024/01/17 01:38:41;;;;;;;;;32.00;27.67;;;;;;;;5046198;28;45584;-81
2024/01/17 01:41:06;;;;;;;;;31.33;26.33;;;;;;;;5047737;28;45337;-81
2024/01/17 01:43:31;;;;;;;;;29.00;26.67;;;;;;;;5029279;28;45382;-81
2024/01/17 01:45:56;;;;;;;;;31.33;26.33;;;;;;;;5030386;28;45590;-81
2024/01/17 01:48:21;;;;;;;;;30.33;27.00;;;;;;;;5025823;28;46214;-81
2024/01/17 01:50:47;;;;;;;;;27.67;27.00;;;;;;;;5033605;28;45271;-81
2024/01/17 01:53:12;;;;;;;;;36.00;31.50;;;;;;;;5040793;28;45236;-81
2024/01/17 01:55:37;;;;;;;;;37.67;29.67;;;;;;;;5022463;28;45398;-81
2024/01/17 01:58:02;;;;;;;;;36.00;32.00;;;;;;;;5047764;28;46305;-81
2024/01/17 02:00:28;;;;;;;;;28.50;24.25;;;;;;;;5045206;28;45266;-82
2024/01/17 02:02:54;;;;;;;;;33.50;29.25;;;;;;;;5030525;28;45371;-82
2024/01/17 02:05:20;;;;;;;;;35.50;30.00;;;;;;;;5043584;28;45242;-81
2024/01/17 02:07:45;;;;;;;;;17.75;16.00;;;;;;;;5028978;28;48086;-81
2024/01/17 02:10:10;;;;;;;;;36.33;33.33;;;;;;;;5038485;28;47052;-81
2024/01/17 02:12:36;;;;;;;;;34.00;25.33;;;;;;;;5049892;28;45272;-81
2024/01/17 02:15:02;;;;;;;;;37.25;30.75;;;;;;;;5055265;28;45472;-81
2024/01/17 02:17:27;;;;;;;;;27.33;27.00;;;;;;;;5052374;28;45338;-81
2024/01/17 02:19:52;;;;;;;;;33.67;28.33;;;;;;;;5055217;28;45489;-82
2024/01/17 02:22:17;;;;;;;;;28.67;27.33;;;;;;;;5034276;28;45300;-81
2024/01/17 02:24:42;;;;;;;;;34.00;28.33;;;;;;;;5049894;28;45582;-81
2024/01/17 02:27:08;;;;;;;;;33.00;27.00;;;;;;;;5051017;28;45583;-81
2024/01/17 02:29:33;;;;;;;;;27.00;25.00;;;;;;;;5045003;28;45280;-81
2024/01/17 02:31:58;;;;;;;;;24.67;23.00;;;;;;;;5046523;28;45396;-81
2024/01/17 02:34:24;;;;;;;;;24.00;21.25;;;;;;;;5055450;28;45438;-81
2024/01/17 02:36:49;;;;;;;;;38.00;30.00;;;;;;;;5033129;28;47365;-81
2024/01/17 02:39:17;;;;;;;;;33.67;28.00;;;;;;;;5037454;28;45465;-81
2024/01/17 02:41:46;;;;;;;;;33.50;31.25;;;;;;;;5033110;28;45484;-81
2024/01/17 02:44:11;;;;;;;;;38.00;36.75;;;;;;;;5054253;28;45375;-81
2024/01/17 02:46:36;;;;;;;;;36.33;28.33;;;;;;;;5048556;28;45410;-81
2024/01/17 02:49:02;;;;;;;;;39.00;31.33;;;;;;;;5032838;28;45389;-81
2024/01/17 02:51:28;;;;;;;;;33.75;28.50;;;;;;;;5031120;28;45382;-81
2024/01/17 02:53:53;;;;;;;;;27.67;26.33;;;;;;;;5039206;28;45333;-81
2024/01/17 02:56:19;;;;;;;;;34.67;28.00;;;;;;;;5043156;28;45446;-82
2024/01/17 02:58:44;;;;;;;;;37.25;32.75;;;;;;;;5043754;28;45334;-81
2024/01/17 03:01:09;;;;;;;;;35.00;27.50;;;;;;;;5044119;28;45510;-81
2024/01/17 03:03:35;;;;;;;;;24.00;18.33;;;;;;;;5043633;28;45350;-81
2024/01/17 03:06:00;;;;;;;;;34.50;31.00;;;;;;;;5047269;28;45340;-81
2024/01/17 03:08:25;;;;;;;;;40.00;33.00;;;;;;;;5042524;28;45564;-81
2024/01/17 03:10:50;;;;;;;;;37.67;32.00;;;;;;;;5044212;28;45520;-81
2024/01/17 03:13:16;;;;;;;;;35.00;32.00;;;;;;;;5039524;28;45330;-81
2024/01/17 03:15:41;;;;;;;;;34.00;30.67;;;;;;;;5045906;28;46356;-81
2024/01/17 03:18:13;;;;;;;;;34.75;32.75;;;;;;;;5043101;28;45354;-81
2024/01/17 03:20:39;;;;;;;;;39.75;37.50;;;;;;;;5025522;28;45426;-81
2024/01/17 03:23:04;;;;;;;;;49.50;39.75;;;;;;;;5043054;28;45291;-81
2024/01/17 03:25:29;;;;;;;;;44.33;37.67;;;;;;;;5042775;28;45481;-81
2024/01/17 03:27:54;;;;;;;;;37.33;32.67;;;;;;;;5040032;28;45437;-81
2024/01/17 03:30:19;;;;;;;;;32.00;29.67;;;;;;;;5046921;28;45323;-81
2024/01/17 03:32:45;;;;;;;;;31.75;30.75;;;;;;;;5039210;28;45271;-81
2024/01/17 03:35:10;;;;;;;;;29.33;28.00;;;;;;;;5046649;28;45323;-81
2024/01/17 03:37:36;;;;;;;;;33.00;26.67;;;;;;;;5025186;28;45999;-81
2024/01/17 03:40:01;;;;;;;;;28.50;28.00;;;;;;;;5026128;28;45322;-81
2024/01/17 03:42:26;;;;;;;;;38.33;33.33;;;;;;;;5042857;28;45405;-81
2024/01/17 03:44:52;;;;;;;;;35.67;23.00;;;;;;;;5042630;28;45209;-81
2024/01/17 03:47:17;;;;;;;;;38.67;34.33;;;;;;;;5041641;28;45530;-81
2024/01/17 03:49:42;;;;;;;;;31.33;27.67;;;;;;;;5024390;28;45659;-81
2024/01/17 03:52:07;;;;;;;;;33.33;27.33;;;;;;;;5030143;28;45429;-81
2024/01/17 03:54:33;;;;;;;;;28.67;25.33;;;;;;;;5041141;28;45342;-81
2024/01/17 03:56:59;;;;;;;;;32.75;26.00;;;;;;;;5042183;28;45860;-81
2024/01/17 03:59:25;;;;;;;;;29.00;23.75;;;;;;;;5045920;28;45441;-81
2024/01/17 04:01:50;;;;;;;;;25.33;24.33;;;;;;;;5024803;28;45188;-81
2024/01/17 04:04:15;;;;;;;;;21.67;17.67;;;;;;;;5045852;28;46266;-81
2024/01/17 04:06:40;;;;;;;;;42.00;31.33;;;;;;;;5042582;28;45239;-81
2024/01/17 04:09:05;;;;;;;;;40.67;31.33;;;;;;;;5041359;28;45425;-81
2024/01/17 04:11:31;;;;;;;;;29.00;23.33;;;;;;;;5040053;28;45369;-83
2024/01/17 04:13:56;;;;;;;;;25.67;23.33;;;;;;;;5024260;28;47325;-82
2024/01/17 04:16:21;;;;;;;;;32.33;25.00;;;;;;;;5042411;28;45247;-82
2024/01/17 04:18:46;;;;;;;;;35.33;24.67;;;;;;;;5045624;28;45362;-81
2024/01/17 04:21:21;;;;;;;;;31.33;23.67;;;;;;;;5042377;28;45674;-83
2024/01/17 04:23:47;;;;;;;;;31.75;26.50;;;;;;;;5040335;28;46106;-84
2024/01/17 04:26:20;;;;;;;;;34.25;27.25;;;;;;;;5041649;28;45801;-83
2024/01/17 04:28:45;;;;;;;;;32.75;29.50;;;;;;;;5022839;28;45354;-83
2024/01/17 04:31:11;;;;;;;;;25.25;24.00;;;;;;;;5044890;28;45260;-83
2024/01/17 04:33:36;;;;;;;;;31.75;27.25;;;;;;;;5027274;28;47021;-83
2024/01/17 04:36:01;;;;;;;;;26.00;21.33;;;;;;;;5027435;28;45858;-83
2024/01/17 04:38:27;;;;;;;;;29.50;27.00;;;;;;;;5043971;28;45285;-83
2024/01/17 04:40:52;;;;;;;;;25.00;22.00;;;;;;;;5026554;28;45560;-83
2024/01/17 04:43:17;;;;;;;;;28.00;24.00;;;;;;;;5047830;28;45367;-83
2024/01/17 04:45:42;;;;;;;;;34.33;30.00;;;;;;;;5055814;28;45519;-81
2024/01/17 04:48:09;;;;;;;;;30.67;29.00;;;;;;;;5026207;28;45408;-81
2024/01/17 04:50:34;;;;;;;;;35.25;29.75;;;;;;;;5035261;28;46032;-81
2024/01/17 04:52:59;;;;;;;;;36.67;31.67;;;;;;;;5026494;28;48444;-83
2024/01/17 04:55:25;;;;;;;;;28.33;26.00;;;;;;;;5022279;28;45804;-83
2024/01/17 04:57:50;;;;;;;;;30.00;26.00;;;;;;;;5048874;28;45235;-83
2024/01/17 05:00:15;;;;;;;;;33.67;30.33;;;;;;;;5045418;28;45215;-83
2024/01/17 05:02:40;;;;;;;;;34.33;25.33;;;;;;;;5048795;28;45302;-83
2024/01/17 05:05:06;;;;;;;;;34.67;28.33;;;;;;;;5027502;28;45413;-83
2024/01/17 05:07:31;;;;;;;;;27.50;27.25;;;;;;;;5027971;28;45300;-81
2024/01/17 05:09:56;;;;;;;;;27.33;23.67;;;;;;;;5045221;28;45287;-81
2024/01/17 05:12:21;;;;;;;;;29.33;27.33;;;;;;;;5023888;28;47450;-81
2024/01/17 05:14:46;;;;;;;;;28.00;24.33;;;;;;;;5045398;28;45483;-81
2024/01/17 05:17:12;;;;;;;;;32.00;29.50;;;;;;;;5030372;28;45402;-81
2024/01/17 05:19:38;;;;;;;;;36.50;29.25;;;;;;;;5026968;28;45608;-81
2024/01/17 05:22:03;;;;;;;;;33.25;27.50;;;;;;;;5044053;28;45396;-81
2024/01/17 05:24:29;;;;;;;;;29.33;25.00;;;;;;;;5041283;28;45331;-81
2024/01/17 05:26:54;;;;;;;;;27.00;25.33;;;;;;;;5046985;28;45255;-81
2024/01/17 05:29:19;;;;;;;;;24.33;22.67;;;;;;;;5041631;28;45427;-81
2024/01/17 05:31:44;;;;;;;;;23.00;18.33;;;;;;;;5043934;28;45335;-81
2024/01/17 05:34:09;;;;;;;;;22.33;19.00;;;;;;;;5026517;28;45407;-81
2024/01/17 05:36:37;;;;;;;;;26.00;23.33;;;;;;;;5047060;28;45267;-82
2024/01/17 05:39:03;;;;;;;;;31.25;24.75;;;;;;;;5022105;28;45693;-81
2024/01/17 05:41:28;;;;;;;;;29.25;23.50;;;;;;;;5045960;28;45399;-81
2024/01/17 05:43:53;;;;;;;;;27.67;25.67;;;;;;;;5026291;28;45336;-81
2024/01/17 05:46:18;;;;;;;;;30.67;25.33;;;;;;;;5045633;28;45251;-81
2024/01/17 05:48:43;;;;;;;;;33.33;28.67;;;;;;;;5025097;28;46217;-81
2024/01/17 05:51:10;;;;;;;;;30.00;25.33;;;;;;;;5032210;28;46268;-81
2024/01/17 05:53:35;;;;;;;;;25.00;24.75;;;;;;;;5040454;28;45715;-82
2024/01/17 05:56:00;;;;;;;;;28.67;24.33;;;;;;;;5042288;28;45331;-81
2024/01/17 05:58:25;;;;;;;;;35.00;29.33;;;;;;;;5027462;28;45763;-81
2024/01/17 06:00:50;;;;;;;;;37.33;25.00;;;;;;;;5047936;28;45474;-81
2024/01/17 06:03:16;;;;;;;;;15.00;12.00;;;;;;;;5044914;28;45311;-81
2024/01/17 06:05:41;;;;;;;;;20.00;17.33;;;;;;;;5030748;28;45272;-81
2024/01/17 06:08:06;;;;;;;;;24.00;22.33;;;;;;;;5042378;28;45320;-81
2024/01/17 06:10:31;;;;;;;;;25.00;21.00;;;;;;;;5027391;28;47188;-82
2024/01/17 06:12:56;;;;;;;;;25.00;24.67;;;;;;;;5043251;28;45387;-81
2024/01/17 06:15:22;;;;;;;;;26.67;24.00;;;;;;;;5030733;28;45467;-81
2024/01/17 06:17:47;;;;;;;;;23.33;20.67;;;;;;;;5027125;28;45601;-81
2024/01/17 06:20:12;;;;;;;;;25.33;21.00;;;;;;;;5048276;28;45543;-82
2024/01/17 06:22:37;;;;;;;;;31.67;25.33;;;;;;;;5042361;28;45299;-81
2024/01/17 06:25:04;;;;;;;;;29.00;23.00;;;;;;;;5044154;28;45399;-81
2024/01/17 06:27:29;;;;;;;;;26.75;22.50;;;;;;;;5023849;28;45767;-81
2024/01/17 06:29:54;;;;;;;;;27.00;20.67;;;;;;;;5026556;28;47318;-81
2024/01/17 06:32:20;;;;;;;;;26.67;21.33;;;;;;;;5047025;28;45326;-81
2024/01/17 06:34:45;;;;;;;;;29.33;25.00;;;;;;;;5049056;28;45242;-81
2024/01/17 06:37:10;;;;;;;;;9.00;9.00;;;;;;;;5026206;28;45516;-81
2024/01/17 06:39:35;;;;;;;;;26.50;22.75;;;;;;;;5048873;28;45268;-81
2024/01/17 06:42:02;;;;;;;;;25.33;22.00;;;;;;;;5026748;28;45572;-81
2024/01/17 06:44:28;;;;;;;;;19.00;16.75;;;;;;;;5027229;28;45342;-81
2024/01/17 06:46:54;;;;;;;;;16.75;16.75;;;;;;;;5025758;28;45330;-83
2024/01/17 06:49:19;;;;;;;;;24.75;21.00;;;;;;;;5029810;28;48138;-83
2024/01/17 06:51:45;;;;;;;;;30.33;19.67;;;;;;;;5029754;28;45410;-83
2024/01/17 06:54:10;;;;;;;;;23.75;20.75;;;;;;;;5028413;28;45496;-83
2024/01/17 06:56:36;;;;;;;;;26.67;22.67;;;;;;;;5050289;28;45261;-83
2024/01/17 06:59:01;;;;;;;;;19.25;17.00;;;;;;;;5045209;28;45312;-83
2024/01/17 07:01:27;;;;;;;;;23.50;21.00;;;;;;;;5027940;28;45355;-83
2024/01/17 07:03:52;;;;;;;;;24.67;20.00;;;;;;;;5044904;28;45307;-83
2024/01/17 07:06:17;;;;;;;;;24.67;21.00;;;;;;;;5045229;28;45506;-83
2024/01/17 07:08:42;;;;;;;;;24.25;19.25;;;;;;;;5021901;28;46976;-83
2024/01/17 07:11:10;;;;;;;;;24.67;22.67;;;;;;;;5024442;28;45236;-83
2024/01/17 07:13:35;;;;;;;;;21.25;20.00;;;;;;;;5024197;28;45261;-83
2024/01/17 07:16:01;;;;;;;;;23.67;22.00;;;;;;;;5044998;28;45261;-81
2024/01/17 07:18:27;;;;;;;;;21.75;17.50;;;;;;;;5037579;28;45206;-81
2024/01/17 07:20:52;;;;;;;;;20.00;16.33;;;;;;;;5045052;28;45644;-81
2024/01/17 07:23:17;;;;;;;;;23.25;21.75;;;;;;;;5049855;28;45641;-82
2024/01/17 07:25:43;;;;;;;;;29.25;20.00;;;;;;;;5043053;28;45555;-81
2024/01/17 07:28:09;;;;;;;;;22.00;21.25;;;;;;;;5042798;28;46280;-83
2024/01/17 07:30:34;;;;;;;;;18.75;16.00;;;;;;;;5034445;28;45348;-81
2024/01/17 07:32:59;;;;;;;;;19.67;19.00;;;;;;;;5036814;28;45445;-81
2024/01/17 07:35:25;;;;;;;;;20.67;19.00;;;;;;;;5020848;28;45534;-81
2024/01/17 07:37:50;;;;;;;;;18.33;17.00;;;;;;;;5055288;28;45513;-81
2024/01/17 07:40:16;;;;;;;;;22.75;17.50;;;;;;;;5044216;28;45437;-81
2024/01/17 07:42:41;;;;;;;;;19.75;17.25;;;;;;;;5039843;28;45306;-81
2024/01/17 07:45:06;;;;;;;;;24.75;20.50;;;;;;;;5034661;28;46090;-81
2024/01/17 07:47:32;;;;;;;;;17.00;16.00;;;;;;;;5052094;28;47934;-81
2024/01/17 07:49:59;;;;;;;;;23.50;17.25;;;;;;;;5038986;28;45548;-81
2024/01/17 07:52:25;;;;;;;;;22.00;20.50;;;;;;;;5042278;28;45467;-81
2024/01/17 07:54:50;;;;;;;;;17.25;16.00;;;;;;;;5021611;28;45435;-81
2024/01/17 07:57:15;;;;;;;;;27.00;18.00;;;;;;;;5027995;28;48105;-81
2024/01/17 07:59:40;;;;;;;;;21.00;16.67;;;;;;;;5041876;28;45575;-83
2024/01/17 08:02:06;;;;;;;;;23.00;18.50;;;;;;;;5038436;28;46016;-83
2024/01/17 08:04:31;;;;;;;;;18.33;14.33;;;;;;;;5035889;28;45341;-83
2024/01/17 08:06:56;;;;;;;;;13.00;12.00;;;;;;;;5019688;28;47445;-83
2024/01/17 08:09:21;;;;;;;;;16.00;13.33;;;;;;;;5037378;28;45231;-85
2024/01/17 08:11:54;;;;;;;;;13.75;12.50;;;;;;;;5015526;28;45527;-85
2024/01/17 08:14:19;;;;;;;;;21.00;19.00;;;;;;;;5019913;28;45280;-87
2024/01/17 08:16:45;;;;;;;;;19.00;15.25;;;;;;;;5039655;28;45286;-85
2024/01/17 08:19:11;;;;;;;;;20.50;17.50;;;;;;;;5033192;28;45359;-86
2024/01/17 08:21:36;;;;;;;;;14.75;13.25;;;;;;;;5038253;28;45780;-86
2024/01/17 08:24:02;;;;;;;;;16.50;14.50;;;;;;;;5045865;28;45281;-86
2024/01/17 08:26:27;;;;;;;;;19.25;15.75;;;;;;;;5039396;28;46150;-86
2024/01/17 08:28:52;;;;;;;;;19.67;16.33;;;;;;;;5018455;28;45417;-85
2024/01/17 08:31:17;;;;;;;;;14.33;13.33;;;;;;;;5037133;28;45281;-85
2024/01/17 08:33:42;;;;;;;;;16.67;14.67;;;;;;;;5020498;28;45335;-85
2024/01/17 08:36:08;;;;;;;;;13.50;13.00;;;;;;;;5024667;28;47100;-84
2024/01/17 08:38:33;;;;;;;;;17.00;17.00;;;;;;;;5047605;28;46413;-84
2024/01/17 08:40:58;;;;;;;;;14.33;13.33;;;;;;;;5022895;28;45513;-84
2024/01/17 08:43:24;;;;;;;;;13.33;13.00;;;;;;;;5020891;28;45499;-85
2024/01/17 08:45:49;;;;;;;;;23.33;19.33;;;;;;;;5027512;28;48121;-85
2024/01/17 08:48:14;;;;;;;;;18.00;14.33;;;;;;;;5023435;28;45414;-85
2024/01/17 08:50:39;;;;;;;;;17.00;14.00;;;;;;;;5019873;28;45540;-84
2024/01/17 08:53:05;;;;;;;;;18.50;17.50;;;;;;;;5022025;28;45412;-85
2024/01/17 08:55:31;;;;;;;;;21.50;17.00;;;;;;;;5024728;28;47437;-82
2024/01/17 08:57:56;;;;;;;;;17.75;16.00;;;;;;;;5040923;28;45466;-86
2024/01/17 09:00:22;;;;;;;;;13.67;13.67;;;;;;;;5031747;28;45394;-84
2024/01/17 09:02:47;;;;;;;;;16.00;14.00;;;;;;;;5044850;28;45409;-82
2024/01/17 09:05:12;;;;;;;;;14.00;13.00;;;;;;;;5033110;28;47188;-83
2024/01/17 09:07:37;;;;;;;;;14.00;14.00;;;;;;;;5054588;28;45432;-83
2024/01/17 09:10:02;;;;;;;;;13.67;11.33;;;;;;;;5027017;28;45451;-82
2024/01/17 09:12:28;;;;;;;;;13.00;12.50;;;;;;;;5045384;28;45263;-82
2024/01/17 09:14:54;;;;;;;;;14.67;11.33;;;;;;;;5044376;28;45586;-83
2024/01/17 09:17:19;;;;;;;;;16.50;13.75;;;;;;;;5040293;28;45260;-82
2024/01/17 09:19:46;;;;;;;;;15.67;13.33;;;;;;;;5024603;28;45483;-82
2024/01/17 09:22:11;;;;;;;;;9.50;9.50;;;;;;;;5052097;28;45394;-83
2024/01/17 09:24:37;;;;;;;;;16.00;13.00;;;;;;;;5043635;28;45447;-84
2024/01/17 09:27:02;;;;;;;;;17.25;15.50;;;;;;;;5040144;28;45409;-83
2024/01/17 09:29:33;;;;;;;;;9.50;9.00;;;;;;;;5029040;28;45331;-83
2024/01/17 09:31:58;;;;;;;;;20.25;14.00;;;;;;;;5029057;28;45410;-87
2024/01/17 09:34:23;;;;;;;;;12.33;9.33;;;;;;;;5053937;28;45598;-88
2024/01/17 09:36:50;;;;;;;;;17.33;10.67;;;;;;;;5031471;28;45214;-82
2024/01/17 09:39:15;;;;;;;;;12.50;10.75;;;;;;;;5023947;28;45632;-81
2024/01/17 09:41:41;;;;;;;;;12.00;10.25;;;;;;;;5023713;28;45359;-82
2024/01/17 09:44:06;;;;;;;;;15.00;12.50;;;;;;;;5021912;28;47851;-83
2024/01/17 09:46:36;;;;;;;;;16.50;11.75;;;;;;;;5047915;28;45325;-86
2024/01/17 09:49:02;;;;;;;;;13.25;9.75;;;;;;;;5056904;28;45239;-85
2024/01/17 09:51:27;;;;;;;;;8.00;8.00;;;;;;;;5045529;28;45377;-86
2024/01/17 09:53:54;;;;;;;;;9.00;9.00;;;;;;;;5026313;28;47032;-86
2024/01/17 09:56:21;;;;;;;;;10.50;10.50;;;;;;;;5042610;28;45579;-89
2024/01/17 09:58:48;;;;;;;;;15.00;12.50;;;;;;;;5046353;28;45381;-87
2024/01/17 10:01:15;;;;;;;;;18.00;15.50;;;;;;;;5026728;28;45503;-89
2024/01/17 10:03:41;;;;;;;;;10.75;9.50;;;;;;;;5049116;28;45480;-87
2024/01/17 10:06:08;;;;;;;;;14.00;11.75;;;;;;;;5039383;28;45498;-87
2024/01/17 10:08:33;;;;;;;;;13.75;12.75;;;;;;;;5050672;28;45388;-87
2024/01/17 10:10:59;;;;;;;;;11.00;10.50;;;;;;;;5021435;28;45525;-87
2024/01/17 10:13:24;;;;;;;;;12.67;12.67;;;;;;;;5044758;28;46577;-86
2024/01/17 10:15:49;;;;;;;;;10.33;10.33;;;;;;;;5040445;28;45932;-87
2024/01/17 10:18:15;;;;;;;;;17.67;15.67;;;;;;;;5026674;28;45425;-87
2024/01/17 10:20:42;;;;;;;;;10.75;9.75;;;;;;;;5021379;28;45470;-80
2024/01/17 10:23:07;;;;;;;;;13.25;11.00;;;;;;;;5051016;28;45520;-78
2024/01/17 10:25:39;;;;;;;;;12.00;10.33;;;;;;;;5044151;28;45505;-79
2024/01/17 10:28:04;;;;;;;;;11.50;11.25;;;;;;;;5045730;28;45588;-79
2024/01/17 10:30:29;;;;;;;;;11.50;9.25;;;;;;;;5026249;28;45378;-79
2024/01/17 10:32:55;;;;;;;;;15.33;11.00;;;;;;;;5037316;28;47157;-79
2024/01/17 10:35:23;;;;;;;;;13.75;11.00;;;;;;;;5046962;28;45378;-79
2024/01/17 10:37:49;;;;;;;;;13.75;11.75;;;;;;;;5024683;28;45390;-78
2024/01/17 10:40:18;;;;;;;;;21.75;17.00;;;;;;;;5038964;28;45349;-79
2024/01/17 10:42:43;;;;;;;;;14.00;14.00;;;;;;;;5051703;28;45434;-79
2024/01/17 10:45:18;;;;;;;;;11.33;10.67;;;;;;;;5041110;28;47036;-79
2024/01/17 10:47:43;;;;;;;;;15.25;13.75;;;;;;;;5039659;28;45295;-79
2024/01/17 10:50:10;;;;;;;;;15.00;15.00;;;;;;;;5046150;28;45439;-79
2024/01/17 10:52:37;;;;;;;;;32.75;28.50;;;;;;;;5052027;28;45316;-79
2024/01/17 10:55:08;;;;;;;;;28.75;26.50;;;;;;;;5033103;28;45799;-80
2024/01/17 10:57:36;;;;;;;;;22.75;19.75;;;;;;;;5020720;28;45382;-80
2024/01/17 11:00:06;;;;;;;;;19.50;18.50;;;;;;;;5040735;28;45338;-79
2024/01/17 11:02:32;;;;;;;;;9.50;9.50;;;;;;;;5043351;28;45504;-80
2024/01/17 11:05:02;;;;;;;;;18.25;15.00;;;;;;;;5019602;28;45258;-80
2024/01/17 11:07:28;;;;;;;;;6.25;6.25;;;;;;;;5045095;28;45401;-80
2024/01/17 11:09:53;;;;;;;;;17.25;14.75;;;;;;;;5024897;28;45539;-80
2024/01/17 11:12:19;;;;;;;;;14.75;14.75;;;;;;;;5022935;28;47562;-80
2024/01/17 11:14:46;;;;;;;;;19.00;18.50;;;;;;;;5043703;28;45858;-80
2024/01/17 11:17:13;;;;;;;;;18.75;16.75;;;;;;;;5042890;28;45424;-80
2024/01/17 11:19:39;;;;;;;;;19.00;19.00;;;;;;;;5026759;28;45365;-79
2024/01/17 11:22:04;;;;;;;;;19.75;19.75;;;;;;;;5038511;28;45386;-79
2024/01/17 11:24:45;;;;;;;;;20.00;19.00;;;;;;;;5040847;28;45517;-79
2024/01/17 11:27:21;;;;;;;;;18.75;17.00;;;;;;;;5036173;28;45382;-80
2024/01/17 11:29:52;;;;;;;;;24.25;22.00;;;;;;;;5026222;28;45383;-80
2024/01/17 11:32:17;;;;;;;;;22.50;21.00;;;;;;;;5034741;28;47977;-80
2024/01/17 11:34:43;;;;;;;;;20.25;16.00;;;;;;;;5027313;28;45512;-80
2024/01/17 11:37:09;;;;;;;;;19.33;15.67;;;;;;;;5033754;28;45508;-80
2024/01/17 11:39:34;;;;;;;;;21.50;18.50;;;;;;;;5040833;28;45672;-80
2024/01/17 11:41:59;;;;;;;;;24.00;19.67;;;;;;;;5058570;28;45456;-80
2024/01/17 11:44:25;;;;;;;;;29.33;23.33;;;;;;;;5058583;28;45399;-80
2024/01/17 11:46:51;;;;;;;;;19.00;18.25;;;;;;;;5048174;28;45319;-80
2024/01/17 11:49:27;;;;;;;;;22.75;22.75;;;;;;;;5020468;28;45344;-80
2024/01/17 11:51:52;;;;;;;;;29.50;27.25;;;;;;;;5023003;28;47605;-80
2024/01/17 11:54:17;;;;;;;;;24.67;24.33;;;;;;;;5040647;28;46126;-80
2024/01/17 11:56:42;;;;;;;;;25.33;23.00;;;;;;;;5057531;28;45346;-80
2024/01/17 11:59:09;;;;;;;;;26.50;24.75;;;;;;;;5058767;28;45292;-80
2024/01/17 12:01:34;;;;;;;;;32.25;29.00;;;;;;;;5058492;28;46035;-80
2024/01/17 12:04:09;;;;;;;;;38.67;29.67;;;;;;;;5040829;28;45316;-80
2024/01/17 12:06:35;;;;;;;;;33.50;30.25;;;;;;;;5022352;28;45564;-78
2024/01/17 12:09:00;;;;;;;;;24.25;24.25;;;;;;;;5044199;28;45460;-79
2024/01/17 12:11:26;;;;;;;;;32.33;24.67;;;;;;;;5021702;28;47092;-78
2024/01/17 12:13:52;;;;;;;;;31.00;28.50;;;;;;;;5040324;28;45310;-78
2024/01/17 12:16:21;;;;;;;;;28.00;23.50;;;;;;;;5047037;28;45750;-78
2024/01/17 12:18:55;;;;;;;;;30.75;28.50;;;;;;;;5046361;28;45415;-78
2024/01/17 12:21:20;;;;;;;;;31.50;30.75;;;;;;;;5042642;28;46572;-78
2024/01/17 12:23:46;;;;;;;;;31.25;27.75;;;;;;;;5049661;28;45336;-79
2024/01/17 12:26:11;;;;;;;;;29.50;27.25;;;;;;;;5048214;28;45292;-79
2024/01/17 12:28:38;;;;;;;;;16.00;16.00;;;;;;;;5017162;28;45457;-79
2024/01/17 12:31:06;;;;;;;;;30.50;27.75;;;;;;;;5035676;28;45829;-79
2024/01/17 12:33:35;;;;;;;;;33.75;29.75;;;;;;;;5039473;28;46086;-79
2024/01/17 12:36:00;;;;;;;;;27.00;22.00;;;;;;;;5035087;28;45393;-80
2024/01/17 12:38:30;;;;;;;;;23.25;22.75;;;;;;;;5024865;28;45725;-80
2024/01/17 12:40:56;;;;;;;;;29.50;26.50;;;;;;;;5039265;28;46597;-79
2024/01/17 12:43:21;;;;;;;;;27.00;24.00;;;;;;;;5021218;28;45324;-79
2024/01/17 12:45:47;;;;;;;;;34.25;29.25;;;;;;;;5037083;28;45385;-79
2024/01/17 12:48:15;;;;;;;;;28.00;27.00;;;;;;;;5022227;28;45741;-79
2024/01/17 12:50:48;;;;;;;;;29.75;27.25;;;;;;;;5042752;28;46479;-80
2024/01/17 12:53:17;;;;;;;;;29.25;24.50;;;;;;;;5025961;28;45882;-80
2024/01/17 12:55:43;;;;;;;;;26.75;25.25;;;;;;;;5045854;28;45294;-79
2024/01/17 12:58:11;;;;;;;;;32.75;29.75;;;;;;;;5046543;28;45436;-80
2024/01/17 13:00:37;;;;;;;;;30.75;27.25;;;;;;;;5051547;28;45668;-80
2024/01/17 13:03:02;;;;;;;;;30.75;30.25;;;;;;;;5028738;28;45918;-80
2024/01/17 13:05:27;;;;;;;;;35.75;29.75;;;;;;;;5041841;28;45306;-87
2024/01/17 13:07:52;;;;;;;;;36.00;31.50;;;;;;;;5056386;28;45512;-87
2024/01/17 13:10:20;;;;;;;;;28.50;25.75;;;;;;;;5042715;28;47329;-82
2024/01/17 13:12:46;;;;;;;;;28.25;26.00;;;;;;;;5043496;28;45671;-86
2024/01/17 13:15:13;;;;;;;;;32.50;27.50;;;;;;;;5050552;28;45335;-86
2024/01/17 13:17:43;;;;;;;;;28.25;23.50;;;;;;;;5040890;28;45350;-86
2024/01/17 13:20:15;;;;;;;;;32.50;28.50;;;;;;;;5026135;28;48182;-86
2024/01/17 13:22:40;;;;;;;;;29.75;22.50;;;;;;;;5023919;28;45420;-87
2024/01/17 13:25:05;;;;;;;;;28.33;27.00;;;;;;;;5050425;28;45264;-85
2024/01/17 13:27:31;;;;;;;;;29.00;27.00;;;;;;;;5025064;28;45469;-86
2024/01/17 13:29:56;;;;;;;;;27.50;23.50;;;;;;;;5034502;28;45481;-86
2024/01/17 13:32:22;;;;;;;;;19.00;17.33;;;;;;;;5040610;28;45445;-80
2024/01/17 13:34:47;;;;;;;;;22.75;17.00;;;;;;;;5038639;28;45243;-80
2024/01/17 13:37:13;;;;;;;;;22.00;19.25;;;;;;;;5032129;28;45744;-80
2024/01/17 13:39:38;;;;;;;;;17.25;16.50;;;;;;;;5023104;28;45351;-81
2024/01/17 13:42:03;;;;;;;;;16.33;13.00;;;;;;;;5037857;28;45719;-80
2024/01/17 13:44:29;;;;;;;;;19.67;19.00;;;;;;;;5061069;28;45651;-80
2024/01/17 13:46:54;;;;;;;;;21.00;15.67;;;;;;;;5033860;28;45606;-80
2024/01/17 13:49:24;;;;;;;;;17.25;17.00;;;;;;;;5033617;28;47414;-80
2024/01/17 13:51:50;;;;;;;;;15.50;13.00;;;;;;;;5033021;28;45670;-80
2024/01/17 13:54:15;;;;;;;;;16.00;14.00;;;;;;;;5023596;28;45493;-86
2024/01/17 13:56:42;;;;;;;;;15.00;11.67;;;;;;;;5042051;28;45250;-84
2024/01/17 13:59:08;;;;;;;;;13.25;12.00;;;;;;;;5022764;28;46329;-80
2024/01/17 14:01:33;;;;;;;;;11.25;11.25;;;;;;;;5049560;28;45342;-80
2024/01/17 14:03:58;;;;;;;;;13.67;12.00;;;;;;;;5023003;28;45418;-80
2024/01/17 14:06:24;;;;;;;;;15.00;11.00;;;;;;;;5028197;28;45842;-80
2024/01/17 14:08:49;;;;;;;;;16.00;15.00;;;;;;;;5031281;28;47378;-80
2024/01/17 14:11:14;;;;;;;;;15.67;15.33;;;;;;;;5027601;28;45931;-80